Ocean Spirit of Moray — MVXF5 — position and weather

sailwx.info

Track history (hours):
 
Tides and Currents Weather Stations Pressure Air Temp Water Temp Dewpoint Dewpoint Depression Visibility Wind Speed Wind Dir Waves Ship Positions

Ocean Spirit of Moray (United Kingdom)

Ship's website: http://www.gordonstoun.org.uk/

Last reported at 2015-Apr-04 05:16 UTC. Time now 2015-Apr-28 06:49 UTC.
Position N 58°12' W 006°23'.
Warning: this ship's position is 24 days out of date.

Length 24 m; draft 3 m.

Type: Sailing vessel. MMSI: 232007590.

Date/timePositionNaut miles runAvg speedWind from/ knotsBaromVisibWave heightAir tempDewpointWater temp
2015-Apr-04 05:16N 58°12' W 006°23'0 0.0
2015-Apr-04 04:22N 58°12' W 006°23'0 0.0
2015-Apr-03 23:27N 58°12' W 006°23'0 0.0
2015-Apr-03 22:16N 58°12' W 006°23'6 1.2
2015-Apr-03 17:13N 58°10' W 006°12'6 9.4
2015-Apr-03 16:33N 58°13' W 006°02'78 8.6
2015-Apr-03 07:32N 58°57' W 003°59'9 9.1
2015-Apr-03 06:33N 59°03' W 003°45'9 9.5
2015-Apr-03 05:33N 59°08' W 003°30'18 8.9
2015-Apr-03 03:33N 59°12' W 002°56'10 9.7
2015-Apr-03 02:33N 59°04' W 002°44'  
Track history (hours):
 
Tides and Currents Weather Stations Pressure Air Temp Water Temp Dewpoint Dewpoint Depression Visibility Wind Speed Wind Dir Waves Ship Positions

Ocean Spirit of Moray (United Kingdom)

Ship's website: http://www.gordonstoun.org.uk/

Last reported at 2015-Apr-04 05:16 UTC. Time now 2015-Apr-28 06:49 UTC.
Position N 58°12' W 006°23'.
Warning: this ship's position is 24 days out of date.

Length 24 m; draft 3 m.

Type: Sailing vessel. MMSI: 232007590.

Date/timePositionNaut miles runAvg speedWind from/ knotsBaromVisibWave heightAir tempDewpointWater temp
2015-Apr-04 05:16N 58°12' W 006°23'0 0.0
2015-Apr-04 04:22N 58°12' W 006°23'0 0.0
2015-Apr-03 23:27N 58°12' W 006°23'0 0.0
2015-Apr-03 22:16N 58°12' W 006°23'6 1.2
2015-Apr-03 17:13N 58°10' W 006°12'6 9.4
2015-Apr-03 16:33N 58°13' W 006°02'78 8.6
2015-Apr-03 07:32N 58°57' W 003°59'9 9.1
2015-Apr-03 06:33N 59°03' W 003°45'9 9.5
2015-Apr-03 05:33N 59°08' W 003°30'18 8.9
2015-Apr-03 03:33N 59°12' W 002°56'10 9.7
2015-Apr-03 02:33N 59°04' W 002°44'  

Dump ship's entire track history